createdAt,value
2022-10-09T00:01:13.018Z,12.14
2022-10-09T00:02:15.143Z,11.78
2022-10-09T00:03:17.998Z,11.85
2022-10-09T00:04:20.229Z,11.80
2022-10-09T00:05:23.690Z,11.74
2022-10-09T00:06:29.292Z,11.95
2022-10-09T00:07:31.390Z,11.74
2022-10-09T00:08:39.398Z,12.04
2022-10-09T00:09:41.507Z,11.73
2022-10-09T00:10:44.195Z,11.76
2022-10-09T00:11:46.353Z,11.65
2022-10-09T00:12:49.306Z,11.71
2022-10-09T00:13:52.864Z,11.66
2022-10-09T00:14:54.949Z,11.65
2022-10-09T00:15:57.078Z,11.55
2022-10-09T00:16:59.227Z,11.56
2022-10-09T00:18:01.446Z,11.54
2022-10-09T00:19:03.760Z,11.58
2022-10-09T00:20:06.851Z,11.68
2022-10-09T00:21:22.837Z,11.97
2022-10-09T00:22:24.938Z,11.66
2022-10-09T00:23:27.079Z,11.51
2022-10-09T00:24:29.179Z,11.63
2022-10-09T00:25:31.961Z,11.68
2022-10-09T00:26:34.132Z,11.60
2022-10-09T00:27:36.220Z,11.52
2022-10-09T00:28:38.975Z,11.43
2022-10-09T00:29:41.203Z,11.54
2022-10-09T00:30:43.334Z,11.56
2022-10-09T00:31:45.445Z,11.55
2022-10-09T00:32:47.693Z,11.58
2022-10-09T00:33:50.215Z,11.60
2022-10-09T00:34:52.341Z,11.64
2022-10-09T00:35:54.435Z,11.60
2022-10-09T00:36:56.530Z,11.57
2022-10-09T00:37:58.614Z,11.48
2022-10-09T00:39:00.725Z,11.47
2022-10-09T00:40:03.409Z,11.45
2022-10-09T00:41:06.148Z,11.51
2022-10-09T00:42:12.137Z,11.82
2022-10-09T00:43:19.987Z,11.76
2022-10-09T00:44:47.428Z,11.97
2022-10-09T00:45:55.907Z,11.90
2022-10-09T00:46:58.068Z,11.55
2022-10-09T00:48:04.870Z,11.78
2022-10-09T00:49:24.566Z,11.81
2022-10-09T00:50:44.148Z,11.95
2022-10-09T00:51:49.497Z,11.76
2022-10-09T00:53:00.674Z,11.83
2022-10-09T00:54:10.760Z,11.82
2022-10-09T00:55:14.798Z,11.67
2022-10-09T00:56:16.952Z,11.51
2022-10-09T00:57:19.805Z,11.52
2022-10-09T00:58:24.323Z,11.69
2022-10-09T00:59:27.269Z,11.48
2022-10-09T01:00:29.500Z,11.44
2022-10-09T01:01:31.639Z,11.39
2022-10-09T01:02:33.993Z,11.36
2022-10-09T01:03:36.582Z,11.34
2022-10-09T01:04:38.721Z,11.30
2022-10-09T01:05:57.882Z,11.60
2022-10-09T01:07:07.015Z,11.25
2022-10-09T01:08:35.320Z,11.47
2022-10-09T01:09:57.221Z,11.12
2022-10-09T01:11:29.233Z,11.41
2022-10-09T01:13:01.238Z,11.44
2022-10-09T01:14:29.097Z,11.32
2022-10-09T01:15:44.218Z,11.33
2022-10-09T01:16:58.144Z,11.37
2022-10-09T01:18:11.654Z,11.35
2022-10-09T01:19:30.339Z,11.36
2022-10-09T01:20:50.675Z,11.32
2022-10-09T01:22:37.188Z,11.44
2022-10-09T01:24:23.958Z,11.39
2022-10-09T01:25:56.851Z,11.33
2022-10-09T01:27:23.130Z,11.40
2022-10-09T01:28:29.118Z,11.17
2022-10-09T01:29:52.259Z,11.24
2022-10-09T01:30:58.381Z,10.95
2022-10-09T01:32:02.536Z,10.86
2022-10-09T01:33:05.433Z,10.70
2022-10-09T01:34:08.845Z,10.77
2022-10-09T01:35:12.758Z,10.76
2022-10-09T01:36:16.411Z,10.71
2022-10-09T01:37:20.499Z,10.65
2022-10-09T01:38:24.656Z,10.63
2022-10-09T01:39:28.829Z,10.55
2022-10-09T01:40:31.122Z,10.45
2022-10-09T01:41:33.592Z,10.44
2022-10-09T01:42:35.719Z,10.41
2022-10-09T01:43:37.886Z,10.42
2022-10-09T01:44:40.370Z,10.49
2022-10-09T01:45:45.006Z,10.70
2022-10-09T01:46:47.764Z,10.61
2022-10-09T01:47:49.949Z,10.53
2022-10-09T01:49:33.836Z,10.91
2022-10-09T01:50:43.109Z,10.74
2022-10-09T01:52:00.403Z,10.80
2022-10-09T01:53:09.523Z,10.69
2022-10-09T01:54:13.336Z,10.48
2022-10-09T01:55:43.345Z,10.80
2022-10-09T01:56:48.056Z,10.61
2022-10-09T01:58:01.546Z,10.72
2022-10-09T01:59:15.613Z,10.68
2022-10-09T02:00:18.743Z,10.46
2022-10-09T02:01:34.173Z,10.82
2022-10-09T02:02:37.991Z,10.54
2022-10-09T02:03:43.175Z,10.61
2022-10-09T02:04:46.240Z,10.45
2022-10-09T02:05:51.446Z,10.52
2022-10-09T02:06:54.940Z,10.45
2022-10-09T02:07:58.400Z,10.37
2022-10-09T02:09:04.059Z,10.41
2022-10-09T02:10:09.017Z,10.49
2022-10-09T02:11:17.406Z,10.47
2022-10-09T02:12:22.553Z,10.41
2022-10-09T02:13:24.838Z,10.22
2022-10-09T02:14:26.972Z,10.21
2022-10-09T02:15:42.769Z,10.59
2022-10-09T02:16:47.912Z,10.54
2022-10-09T02:17:54.435Z,10.55
2022-10-09T02:18:59.426Z,10.24
2022-10-09T02:20:28.649Z,10.52
2022-10-09T02:21:46.581Z,10.52
2022-10-09T02:22:49.488Z,10.20
2022-10-09T02:23:54.874Z,10.35
2022-10-09T02:24:59.667Z,10.31
2022-10-09T02:26:01.877Z,10.10
2022-10-09T02:27:05.278Z,10.21
2022-10-09T02:28:08.071Z,10.05
2022-10-09T02:29:11.589Z,10.05
2022-10-09T02:30:15.215Z,10.10
2022-10-09T02:31:26.304Z,10.24
2022-10-09T02:32:29.135Z,9.94
2022-10-09T02:33:33.769Z,10.06
2022-10-09T02:34:35.955Z,9.90
2022-10-09T02:35:38.392Z,9.97
2022-10-09T02:36:40.714Z,9.97
2022-10-09T02:37:42.790Z,9.89
2022-10-09T02:38:44.873Z,9.85
2022-10-09T02:39:46.951Z,9.79
2022-10-09T02:40:49.048Z,9.71
2022-10-09T02:41:51.149Z,9.69
2022-10-09T02:42:53.250Z,9.67
2022-10-09T02:43:55.501Z,9.66
2022-10-09T02:44:57.595Z,9.64
2022-10-09T02:45:59.760Z,9.62
2022-10-09T02:47:01.973Z,9.63
2022-10-09T02:48:04.062Z,9.66
2022-10-09T02:49:06.928Z,9.85
2022-10-09T02:50:09.403Z,9.77
2022-10-09T02:51:11.962Z,9.84
2022-10-09T02:52:14.086Z,9.69
2022-10-09T02:53:16.247Z,9.67
2022-10-09T02:54:18.338Z,9.66
2022-10-09T02:55:20.410Z,9.68
2022-10-09T02:56:23.486Z,9.77
2022-10-09T02:57:25.592Z,9.65
2022-10-09T02:58:30.389Z,9.90
2022-10-09T02:59:32.456Z,9.58
2022-10-09T03:00:34.604Z,9.57
2022-10-09T03:01:36.864Z,9.53
2022-10-09T03:02:39.126Z,9.51
2022-10-09T03:03:41.449Z,9.48
2022-10-09T03:04:43.528Z,9.46
2022-10-09T03:05:46.289Z,9.48
2022-10-09T03:06:48.399Z,9.41
2022-10-09T03:07:53.022Z,9.36
2022-10-09T03:08:56.310Z,9.47
2022-10-09T03:09:58.799Z,9.30
2022-10-09T03:11:00.915Z,9.27
2022-10-09T03:12:03.163Z,9.28
2022-10-09T03:13:06.337Z,9.41
2022-10-09T03:14:09.161Z,9.47
2022-10-09T03:15:12.413Z,9.47
2022-10-09T03:16:20.146Z,9.67
2022-10-09T03:17:22.411Z,9.34
2022-10-09T03:18:24.481Z,9.36
2022-10-09T03:19:26.585Z,9.34
2022-10-09T03:20:31.277Z,9.68
2022-10-09T03:21:33.357Z,9.36
2022-10-09T03:22:35.508Z,9.34
2022-10-09T03:23:38.292Z,9.35
2022-10-09T03:24:40.367Z,9.28
2022-10-09T03:25:42.489Z,9.26
2022-10-09T03:26:44.568Z,9.23
2022-10-09T03:27:46.644Z,9.23
2022-10-09T03:28:50.749Z,9.36
2022-10-09T03:29:52.907Z,9.20
2022-10-09T03:30:55.700Z,9.24
2022-10-09T03:31:57.888Z,9.19
2022-10-09T03:33:00.096Z,9.17
2022-10-09T03:34:02.260Z,9.16
2022-10-09T03:35:04.672Z,9.14
2022-10-09T03:36:07.569Z,9.13
2022-10-09T03:37:09.900Z,9.10
2022-10-09T03:38:12.073Z,9.12
2022-10-09T03:39:14.152Z,9.10
2022-10-09T03:40:16.311Z,9.05
2022-10-09T03:41:18.450Z,9.01
2022-10-09T03:42:20.817Z,9.03
2022-10-09T03:43:22.878Z,9.07
2022-10-09T03:44:25.010Z,9.11
2022-10-09T03:45:27.108Z,9.15
2022-10-09T03:46:29.326Z,9.23
2022-10-09T03:47:31.885Z,9.37
2022-10-09T03:48:34.311Z,9.31
2022-10-09T03:49:36.447Z,9.32
2022-10-09T03:50:39.644Z,9.40
2022-10-09T03:51:41.857Z,9.23
2022-10-09T03:52:43.951Z,9.19
2022-10-09T03:53:46.073Z,9.21
2022-10-09T03:54:48.126Z,9.23
2022-10-09T03:55:50.228Z,9.29
2022-10-09T03:56:52.335Z,9.32
2022-10-09T03:57:54.455Z,9.30
2022-10-09T03:58:56.885Z,9.29
2022-10-09T03:59:59.074Z,9.31
2022-10-09T04:01:01.302Z,9.29
2022-10-09T04:02:03.557Z,9.27
2022-10-09T04:03:05.657Z,9.22
2022-10-09T04:04:07.909Z,9.21
2022-10-09T04:05:10.014Z,9.19
2022-10-09T04:06:12.156Z,9.26
2022-10-09T04:07:14.240Z,9.35
2022-10-09T04:08:16.361Z,9.40
2022-10-09T04:09:18.458Z,9.42
2022-10-09T04:10:20.589Z,9.45
2022-10-09T04:11:22.743Z,9.44
2022-10-09T04:12:24.832Z,9.45
2022-10-09T04:13:27.217Z,9.41
2022-10-09T04:14:29.317Z,9.33
2022-10-09T04:15:31.598Z,9.26
2022-10-09T04:16:33.857Z,9.28
2022-10-09T04:17:36.672Z,9.36
2022-10-09T04:18:43.890Z,9.63
2022-10-09T04:19:46.036Z,9.40
2022-10-09T04:20:52.543Z,9.68
2022-10-09T04:21:54.630Z,9.39
2022-10-09T04:22:56.746Z,9.35
2022-10-09T04:23:58.861Z,9.33
2022-10-09T04:25:00.930Z,9.29
2022-10-09T04:26:03.045Z,9.28
2022-10-09T04:27:05.150Z,9.33
2022-10-09T04:28:07.344Z,9.32
2022-10-09T04:29:10.761Z,9.43
2022-10-09T04:30:13.160Z,9.46
2022-10-09T04:31:15.404Z,9.45
2022-10-09T04:32:17.589Z,9.45
2022-10-09T04:33:19.925Z,9.49
2022-10-09T04:34:22.075Z,9.55
2022-10-09T04:35:24.197Z,9.59
2022-10-09T04:36:26.385Z,9.56
2022-10-09T04:37:28.494Z,9.60
2022-10-09T04:38:31.261Z,9.69
2022-10-09T04:39:33.378Z,9.55
2022-10-09T04:40:35.529Z,9.58
2022-10-09T04:41:38.594Z,9.53
2022-10-09T04:42:40.806Z,9.55
2022-10-09T04:43:42.946Z,9.57
2022-10-09T04:44:45.099Z,9.50
2022-10-09T04:45:47.272Z,9.47
2022-10-09T04:46:52.373Z,9.77
2022-10-09T04:47:54.537Z,9.56
2022-10-09T04:48:56.677Z,9.58
2022-10-09T04:49:58.843Z,9.64
2022-10-09T04:51:04.180Z,9.91
2022-10-09T04:52:06.344Z,9.68
2022-10-09T04:53:09.435Z,9.65
2022-10-09T04:54:12.188Z,9.65
2022-10-09T04:55:14.472Z,9.57
2022-10-09T04:56:19.283Z,9.77
2022-10-09T04:57:21.457Z,9.47
2022-10-09T04:58:23.782Z,9.46
2022-10-09T04:59:25.923Z,9.44
2022-10-09T05:00:28.047Z,9.42
2022-10-09T05:01:35.736Z,9.39
2022-10-09T05:02:40.455Z,9.31
2022-10-09T05:03:42.764Z,9.26
2022-10-09T05:04:46.454Z,9.37
2022-10-09T05:05:48.875Z,9.16
2022-10-09T05:06:50.963Z,9.14
2022-10-09T05:07:53.062Z,9.10
2022-10-09T05:08:55.713Z,9.16
2022-10-09T05:09:57.824Z,9.20
2022-10-09T05:11:01.925Z,9.40
2022-10-09T05:12:04.947Z,9.32
2022-10-09T05:13:07.271Z,9.35
2022-10-09T05:14:10.575Z,9.45
2022-10-09T05:15:13.186Z,9.41
2022-10-09T05:16:18.620Z,9.59
2022-10-09T05:17:23.321Z,9.44
2022-10-09T05:18:25.879Z,9.40
2022-10-09T05:19:28.061Z,9.42
2022-10-09T05:20:30.242Z,9.43
2022-10-09T05:21:32.663Z,9.43
2022-10-09T05:22:34.787Z,9.42
2022-10-09T05:23:36.996Z,9.44
2022-10-09T05:24:39.103Z,9.44
2022-10-09T05:25:41.186Z,9.44
2022-10-09T05:26:43.316Z,9.37
2022-10-09T05:27:45.434Z,9.33
2022-10-09T05:28:48.054Z,9.40
2022-10-09T05:29:50.216Z,9.28
2022-10-09T05:30:52.287Z,9.25
2022-10-09T05:31:54.413Z,9.23
2022-10-09T05:32:56.604Z,9.21
2022-10-09T05:34:00.237Z,9.34
2022-10-09T05:35:02.389Z,9.12
2022-10-09T05:36:05.327Z,9.25
2022-10-09T05:37:07.552Z,9.13
2022-10-09T05:38:09.635Z,9.14
2022-10-09T05:39:12.078Z,9.22
2022-10-09T05:40:14.222Z,9.20
2022-10-09T05:41:18.869Z,9.38
2022-10-09T05:42:20.939Z,9.17
2022-10-09T05:43:25.082Z,9.34
2022-10-09T05:44:27.183Z,9.22
2022-10-09T05:45:29.310Z,9.22
2022-10-09T05:46:31.645Z,9.26
2022-10-09T05:47:33.951Z,9.33
2022-10-09T05:48:37.498Z,9.47
2022-10-09T05:49:39.582Z,9.35
2022-10-09T05:50:42.265Z,9.39
2022-10-09T05:51:44.463Z,9.36
2022-10-09T05:52:46.830Z,9.41
2022-10-09T05:53:50.000Z,9.52
2022-10-09T05:54:52.058Z,9.44
2022-10-09T05:55:54.117Z,9.45
2022-10-09T05:56:56.208Z,9.52
2022-10-09T05:57:58.364Z,9.53
2022-10-09T05:59:01.790Z,9.55
2022-10-09T06:00:04.948Z,9.58
2022-10-09T06:01:14.453Z,9.62
2022-10-09T06:02:16.552Z,9.63
2022-10-09T06:03:18.735Z,9.63
2022-10-09T06:04:23.281Z,9.78
2022-10-09T06:05:25.442Z,9.66
2022-10-09T06:06:31.240Z,9.92
2022-10-09T06:07:33.372Z,9.72
2022-10-09T06:08:37.244Z,9.99
2022-10-09T06:09:39.601Z,9.82
2022-10-09T06:10:41.688Z,9.87
2022-10-09T06:11:44.108Z,9.91
2022-10-09T06:12:46.360Z,9.93
2022-10-09T06:13:49.159Z,10.09
2022-10-09T06:14:51.270Z,10.03
2022-10-09T06:15:54.614Z,10.23
2022-10-09T06:16:58.569Z,10.36
2022-10-09T06:18:00.662Z,10.19
2022-10-09T06:19:03.755Z,10.33
2022-10-09T06:20:06.303Z,10.29
2022-10-09T06:21:09.057Z,10.35
2022-10-09T06:22:11.165Z,10.37
2022-10-09T06:23:13.273Z,10.36
2022-10-09T06:24:26.979Z,10.82
2022-10-09T06:25:30.176Z,10.62
2022-10-09T06:26:32.687Z,10.66
2022-10-09T06:27:34.825Z,10.75
2022-10-09T06:28:37.030Z,10.80
2022-10-09T06:29:39.232Z,10.95
2022-10-09T06:30:41.353Z,11.16
2022-10-09T06:31:43.482Z,11.24
2022-10-09T06:32:45.612Z,11.65
2022-10-09T06:33:49.676Z,12.25
2022-10-09T06:34:52.044Z,12.06
2022-10-09T06:35:59.528Z,12.25
2022-10-09T06:37:06.024Z,12.32
2022-10-09T06:38:08.495Z,12.53
2022-10-09T06:39:10.982Z,12.78
2022-10-09T06:40:13.084Z,13.04
2022-10-09T06:41:18.011Z,13.59
2022-10-09T06:42:20.105Z,13.47
2022-10-09T06:43:31.746Z,13.83
2022-10-09T06:44:33.845Z,13.96
2022-10-09T06:45:37.932Z,14.23
2022-10-09T06:46:41.566Z,14.03
2022-10-09T06:47:43.657Z,14.11
2022-10-09T06:48:45.762Z,13.38
2022-10-09T06:49:47.883Z,14.02
2022-10-09T06:50:50.017Z,14.33
2022-10-09T06:51:52.117Z,14.61
2022-10-09T06:52:54.193Z,14.93
2022-10-09T06:53:58.638Z,15.15
2022-10-09T06:55:00.704Z,14.95
2022-10-09T06:56:03.543Z,15.50
2022-10-09T06:57:05.656Z,15.76
2022-10-09T06:58:07.833Z,16.10
2022-10-09T06:59:10.716Z,15.83
2022-10-09T07:00:13.533Z,16.36
2022-10-09T07:01:21.434Z,16.89
2022-10-09T07:02:23.617Z,16.84
2022-10-09T07:03:25.775Z,17.01
2022-10-09T07:04:27.890Z,16.55
2022-10-09T07:05:30.055Z,16.68
2022-10-09T07:06:33.612Z,17.11
2022-10-09T07:07:40.176Z,17.41
2022-10-09T07:08:44.399Z,16.27
2022-10-09T07:09:46.524Z,16.69
2022-10-09T07:10:48.632Z,16.92
2022-10-09T07:11:50.717Z,17.21
2022-10-09T07:12:52.884Z,17.87
2022-10-09T07:13:58.335Z,17.81
2022-10-09T07:15:00.478Z,18.06
2022-10-09T07:16:04.790Z,18.05
2022-10-09T07:17:07.281Z,18.30
2022-10-09T07:18:09.383Z,18.15
2022-10-09T07:19:13.008Z,19.10
2022-10-09T07:20:15.225Z,19.71
2022-10-09T07:21:17.896Z,19.82
2022-10-09T07:22:22.569Z,19.32
2022-10-09T07:23:29.493Z,20.31
2022-10-09T07:24:31.557Z,20.81
2022-10-09T07:25:38.381Z,21.24
2022-10-09T07:26:43.892Z,20.97
2022-10-09T07:27:45.997Z,21.27
2022-10-09T07:28:49.055Z,21.17
2022-10-09T07:29:51.289Z,21.46
2022-10-09T07:30:53.764Z,21.56
2022-10-09T07:31:55.877Z,21.51
2022-10-09T07:32:57.972Z,22.00
2022-10-09T07:34:00.555Z,21.50
2022-10-09T07:35:02.870Z,21.89
2022-10-09T07:36:06.369Z,22.20
2022-10-09T07:37:08.736Z,21.51
2022-10-09T07:38:10.799Z,22.30
2022-10-09T07:39:13.035Z,22.33
2022-10-09T07:40:15.166Z,21.68
2022-10-09T07:41:17.651Z,21.95
2022-10-09T07:42:19.764Z,21.95
2022-10-09T07:43:22.319Z,21.11
2022-10-09T07:44:24.386Z,22.18
2022-10-09T07:45:26.508Z,23.09
2022-10-09T07:46:33.224Z,23.68
2022-10-09T07:47:35.964Z,23.97
2022-10-09T07:48:38.671Z,23.91
2022-10-09T07:49:40.747Z,23.28
2022-10-09T07:50:42.920Z,21.82
2022-10-09T07:51:45.395Z,22.51
2022-10-09T07:52:47.747Z,22.17
2022-10-09T07:53:50.258Z,22.86
2022-10-09T07:54:52.327Z,23.41
2022-10-09T07:55:54.399Z,23.48
2022-10-09T07:56:56.530Z,22.39
2022-10-09T07:57:58.721Z,21.80
2022-10-09T07:59:04.601Z,22.94
2022-10-09T08:00:07.458Z,23.28
2022-10-09T08:01:19.651Z,23.97
2022-10-09T08:02:22.407Z,24.87
2022-10-09T08:03:24.524Z,25.58
2022-10-09T08:04:26.656Z,25.42
2022-10-09T08:05:28.760Z,26.10
2022-10-09T08:06:31.826Z,26.28
2022-10-09T08:07:34.992Z,26.68
2022-10-09T08:08:37.360Z,27.18
2022-10-09T08:09:40.454Z,27.83
2022-10-09T08:10:42.552Z,27.84
2022-10-09T08:11:44.942Z,28.08
2022-10-09T08:12:47.734Z,28.50
2022-10-09T08:13:50.669Z,28.71
2022-10-09T08:14:52.856Z,28.73
2022-10-09T08:15:58.420Z,29.00
2022-10-09T08:17:00.539Z,28.41
2022-10-09T08:18:02.613Z,28.40
2022-10-09T08:19:04.709Z,28.62
2022-10-09T08:20:07.533Z,27.99
2022-10-09T08:21:13.173Z,27.76
2022-10-09T08:22:15.278Z,27.69
2022-10-09T08:23:17.359Z,26.69
2022-10-09T08:24:19.441Z,26.12
2022-10-09T08:25:21.573Z,27.01
2022-10-09T08:26:24.993Z,26.26
2022-10-09T08:27:27.081Z,26.76
2022-10-09T08:28:29.288Z,27.26
2022-10-09T08:29:33.091Z,26.91
2022-10-09T08:30:36.748Z,26.12
2022-10-09T08:31:39.077Z,26.17
2022-10-09T08:32:41.227Z,25.70
2022-10-09T08:33:43.501Z,26.71
2022-10-09T08:34:46.637Z,27.33
2022-10-09T08:35:53.056Z,26.07
2022-10-09T08:36:55.140Z,25.33
2022-10-09T08:37:57.228Z,26.08
2022-10-09T08:38:59.495Z,26.24
2022-10-09T08:40:01.973Z,26.55
2022-10-09T08:41:16.284Z,26.79
2022-10-09T08:42:30.826Z,26.43
2022-10-09T08:43:39.593Z,25.65
2022-10-09T08:44:46.715Z,24.68
2022-10-09T08:45:51.264Z,25.67
2022-10-09T08:47:16.804Z,24.35
2022-10-09T08:48:23.434Z,25.54
2022-10-09T08:49:38.598Z,25.99
2022-10-09T08:50:47.392Z,26.51
2022-10-09T08:51:50.632Z,26.29
2022-10-09T08:53:07.354Z,27.04
2022-10-09T08:54:17.593Z,26.60
2022-10-09T08:55:25.035Z,26.32
2022-10-09T08:56:29.170Z,27.23
2022-10-09T08:57:34.281Z,27.84
2022-10-09T08:58:39.198Z,28.18
2022-10-09T08:59:41.879Z,27.76
2022-10-09T09:00:49.739Z,27.92
2022-10-09T09:02:24.563Z,28.53
2022-10-09T09:03:51.119Z,28.36
2022-10-09T09:05:32.981Z,28.43
2022-10-09T09:07:04.252Z,29.07
2022-10-09T09:08:25.659Z,28.32
2022-10-09T09:09:50.825Z,26.83
2022-10-09T09:11:10.104Z,26.85
2022-10-09T09:12:42.703Z,27.43
2022-10-09T09:14:20.227Z,28.13
2022-10-09T09:15:44.705Z,27.54
2022-10-09T09:17:12.248Z,26.90
2022-10-09T09:18:40.842Z,27.42
2022-10-09T09:20:05.482Z,25.80
2022-10-09T09:21:10.446Z,26.79
2022-10-09T09:22:14.851Z,26.91
2022-10-09T09:23:17.074Z,27.38
2022-10-09T09:24:42.317Z,28.57
2022-10-09T09:25:46.084Z,27.54
2022-10-09T09:26:53.273Z,28.04
2022-10-09T09:28:00.116Z,28.61
2022-10-09T09:29:04.937Z,29.01
2022-10-09T09:30:13.220Z,29.15
2022-10-09T09:31:24.892Z,29.04
2022-10-09T09:32:29.805Z,29.41
2022-10-09T09:33:46.677Z,28.73
2022-10-09T09:34:49.520Z,28.73
2022-10-09T09:36:10.220Z,28.83
2022-10-09T09:37:12.803Z,28.49
2022-10-09T09:38:15.661Z,28.15
2022-10-09T09:40:44.373Z,28.46
2022-10-09T09:41:49.055Z,28.70
2022-10-09T09:42:51.962Z,29.12
2022-10-09T09:43:54.482Z,29.56
2022-10-09T09:45:02.093Z,30.04
2022-10-09T09:46:14.329Z,28.68
2022-10-09T09:47:41.644Z,28.90
2022-10-09T09:48:48.314Z,29.95
2022-10-09T09:49:56.417Z,29.74
2022-10-09T09:51:23.423Z,29.97
2022-10-09T09:52:21.663Z,30.78
2022-10-09T09:53:39.877Z,30.67
2022-10-09T09:54:48.318Z,28.53
2022-10-09T09:55:54.503Z,29.59
2022-10-09T09:57:18.218Z,29.49
2022-10-09T09:58:22.898Z,29.47
2022-10-09T09:59:39.919Z,29.10
2022-10-09T10:00:42.120Z,28.36
2022-10-09T10:01:44.623Z,28.61
2022-10-09T10:02:47.249Z,29.04
2022-10-09T10:03:53.172Z,29.63
2022-10-09T10:05:00.226Z,30.09
2022-10-09T10:06:02.731Z,30.00
2022-10-09T10:07:05.964Z,29.49
2022-10-09T10:08:35.678Z,29.79
2022-10-09T10:09:38.115Z,28.51
2022-10-09T10:10:45.552Z,28.57
2022-10-09T10:11:53.614Z,28.52
2022-10-09T10:12:58.623Z,28.42
2022-10-09T10:14:08.300Z,28.79
2022-10-09T10:15:27.617Z,29.07
2022-10-09T10:16:32.321Z,27.78
2022-10-09T10:17:37.059Z,29.03
2022-10-09T10:18:43.086Z,29.32
2022-10-09T10:19:50.510Z,28.23
2022-10-09T10:21:02.551Z,28.59
2022-10-09T10:22:07.264Z,28.26
2022-10-09T10:23:34.218Z,29.15
2022-10-09T10:24:43.224Z,29.72
2022-10-09T10:25:45.342Z,28.38
2022-10-09T10:26:53.003Z,28.15
2022-10-09T10:28:03.631Z,27.26
2022-10-09T10:29:17.891Z,27.36
2022-10-09T10:30:20.174Z,26.17
2022-10-09T10:31:46.627Z,25.14
2022-10-09T10:33:22.500Z,25.52
2022-10-09T10:34:40.430Z,26.43
2022-10-09T10:35:43.877Z,26.73
2022-10-09T10:36:47.648Z,26.85
2022-10-09T10:38:22.945Z,27.57
2022-10-09T10:39:35.840Z,27.67
2022-10-09T10:40:43.947Z,27.99
2022-10-09T10:41:51.123Z,27.90
2022-10-09T10:42:57.506Z,26.89
2022-10-09T10:44:09.379Z,27.18
2022-10-09T10:45:17.611Z,26.76
2022-10-09T10:46:39.559Z,26.44
2022-10-09T10:47:49.635Z,26.16
2022-10-09T10:48:52.705Z,24.93
2022-10-09T10:49:55.339Z,24.85
2022-10-09T10:51:25.025Z,25.45
2022-10-09T10:52:44.864Z,25.48
2022-10-09T10:53:57.945Z,24.83
2022-10-09T10:55:19.187Z,25.43
2022-10-09T10:57:04.877Z,25.34
2022-10-09T10:58:25.270Z,26.18
2022-10-09T10:59:39.789Z,26.52
2022-10-09T11:00:49.975Z,26.06
2022-10-09T11:02:11.249Z,25.82
2022-10-09T11:03:40.715Z,26.89
2022-10-09T11:05:26.843Z,26.28
2022-10-09T11:06:49.951Z,26.39
2022-10-09T11:08:00.403Z,26.72
2022-10-09T11:09:33.173Z,27.81
2022-10-09T11:11:04.987Z,28.36
2022-10-09T11:12:43.228Z,27.67
2022-10-09T11:14:17.850Z,28.46
2022-10-09T11:16:12.519Z,28.10
2022-10-09T11:17:44.379Z,29.00
2022-10-09T11:19:01.432Z,28.00
2022-10-09T11:20:19.366Z,27.86
2022-10-09T11:21:27.341Z,28.33
2022-10-09T11:23:10.374Z,27.75
2022-10-09T11:24:27.569Z,28.72
2022-10-09T11:26:04.277Z,29.73
2022-10-09T11:27:32.694Z,29.75
2022-10-09T11:28:43.543Z,30.04
2022-10-09T11:29:50.580Z,29.50
2022-10-09T11:30:52.659Z,30.20
2022-10-09T11:33:50.971Z,29.70
2022-10-09T11:35:02.368Z,30.48
2022-10-09T11:36:33.147Z,30.76
2022-10-09T11:37:39.298Z,29.45
2022-10-09T11:38:48.747Z,30.53
2022-10-09T11:39:51.503Z,30.26
2022-10-09T11:40:54.326Z,30.61
2022-10-09T11:41:57.579Z,30.58
2022-10-09T11:43:08.687Z,30.10
2022-10-09T11:44:31.697Z,29.09
2022-10-09T11:45:48.242Z,29.34
2022-10-09T11:47:01.764Z,30.27
2022-10-09T11:48:16.863Z,30.47
2022-10-09T11:49:39.741Z,30.20
2022-10-09T11:51:03.361Z,30.81
2022-10-09T11:52:17.477Z,30.08
2022-10-09T11:53:23.076Z,30.13
2022-10-09T11:54:27.512Z,30.21
2022-10-09T11:55:31.764Z,30.54
2022-10-09T11:56:33.898Z,30.83
2022-10-09T11:57:36.006Z,31.07
2022-10-09T11:58:38.123Z,31.22
2022-10-09T11:59:43.374Z,32.16
2022-10-09T12:00:50.398Z,32.99
2022-10-09T12:01:52.845Z,32.78
2022-10-09T12:03:01.453Z,31.93
2022-10-09T12:04:12.408Z,31.49
2022-10-09T12:05:38.824Z,31.06
2022-10-09T12:06:47.863Z,30.25
2022-10-09T12:07:49.989Z,29.00
2022-10-09T12:09:07.356Z,29.34
2022-10-09T12:10:25.751Z,29.26
2022-10-09T12:11:29.465Z,28.79
2022-10-09T12:12:31.952Z,28.75
2022-10-09T12:13:36.786Z,29.05
2022-10-09T12:14:38.922Z,28.70
2022-10-09T12:15:50.256Z,29.73
2022-10-09T12:16:52.819Z,28.39
2022-10-09T12:17:55.106Z,28.77
2022-10-09T12:19:00.402Z,29.29
2022-10-09T12:20:08.730Z,29.40
2022-10-09T12:21:30.173Z,29.92
2022-10-09T12:22:36.452Z,29.17
2022-10-09T12:23:39.935Z,27.45
2022-10-09T12:24:45.947Z,28.69
2022-10-09T12:25:48.704Z,29.54
2022-10-09T12:26:53.541Z,30.40
2022-10-09T12:27:58.016Z,29.57
2022-10-09T12:29:02.093Z,29.24
2022-10-09T12:30:13.507Z,27.78
2022-10-09T12:31:22.291Z,27.65
2022-10-09T12:32:30.977Z,28.56
2022-10-09T12:33:58.949Z,28.31
2022-10-09T12:35:04.348Z,29.08
2022-10-09T12:36:23.421Z,28.43
2022-10-09T12:37:35.348Z,28.62
2022-10-09T12:38:37.464Z,27.70
2022-10-09T12:39:39.832Z,27.12
2022-10-09T12:40:46.397Z,26.90
2022-10-09T12:41:52.313Z,27.50
2022-10-09T12:42:56.231Z,27.35
2022-10-09T12:43:59.362Z,27.36
2022-10-09T12:45:01.631Z,27.27
2022-10-09T12:46:03.952Z,26.81
2022-10-09T12:47:22.867Z,26.79
2022-10-09T12:48:27.558Z,27.74
2022-10-09T12:49:29.858Z,28.21
2022-10-09T12:50:33.589Z,27.86
2022-10-09T12:51:35.677Z,27.22
2022-10-09T12:52:58.169Z,27.68
2022-10-09T12:54:07.663Z,27.52
2022-10-09T12:55:22.281Z,27.40
2022-10-09T12:56:32.703Z,27.14
2022-10-09T12:57:35.045Z,26.93
2022-10-09T12:58:39.380Z,27.40
2022-10-09T12:59:43.348Z,27.44
2022-10-09T13:00:48.380Z,27.75
2022-10-09T13:01:55.573Z,28.52
2022-10-09T13:02:57.883Z,28.29
2022-10-09T13:04:04.209Z,27.88
2022-10-09T13:05:06.646Z,27.99
2022-10-09T13:06:17.306Z,28.39
2022-10-09T13:07:21.731Z,28.33
2022-10-09T13:08:37.558Z,29.10
2022-10-09T13:09:40.619Z,28.89
2022-10-09T13:10:42.737Z,28.10
2022-10-09T13:11:50.834Z,28.23
2022-10-09T13:12:56.165Z,28.16
2022-10-09T13:13:58.590Z,27.24
2022-10-09T13:15:06.281Z,27.68
2022-10-09T13:16:10.682Z,27.86
2022-10-09T13:17:36.339Z,27.77
2022-10-09T13:18:38.587Z,27.45
2022-10-09T13:19:54.248Z,26.79
2022-10-09T13:21:22.890Z,27.44
2022-10-09T13:22:29.043Z,26.66
2022-10-09T13:23:35.066Z,26.86
2022-10-09T13:24:37.263Z,27.20
2022-10-09T13:25:42.966Z,27.38
2022-10-09T13:26:45.068Z,27.04
2022-10-09T13:27:47.378Z,26.43
2022-10-09T13:28:50.262Z,26.78
2022-10-09T13:29:53.195Z,26.44
2022-10-09T13:30:55.391Z,26.56
2022-10-09T13:31:57.833Z,27.30
2022-10-09T13:32:59.943Z,27.50
2022-10-09T13:34:11.711Z,27.12
2022-10-09T13:35:13.988Z,27.13
2022-10-09T13:36:19.911Z,27.04
2022-10-09T13:37:23.839Z,26.86
2022-10-09T13:38:25.956Z,26.48
2022-10-09T13:39:28.072Z,26.34
2022-10-09T13:40:30.162Z,26.41
2022-10-09T13:41:33.678Z,26.07
2022-10-09T13:42:37.116Z,26.25
2022-10-09T13:43:39.258Z,25.66
2022-10-09T13:44:41.347Z,25.77
2022-10-09T13:45:43.631Z,25.28
2022-10-09T13:46:45.756Z,24.43
2022-10-09T13:47:48.070Z,24.07
2022-10-09T13:48:50.376Z,24.03
2022-10-09T13:49:52.500Z,24.08
2022-10-09T13:50:54.681Z,24.56
2022-10-09T13:51:56.756Z,24.15
2022-10-09T13:53:00.169Z,23.55
2022-10-09T13:54:02.392Z,23.81
2022-10-09T13:55:05.306Z,24.09
2022-10-09T13:56:09.460Z,24.39
2022-10-09T13:57:11.606Z,24.40
2022-10-09T13:58:13.681Z,23.99
2022-10-09T13:59:16.015Z,24.42
2022-10-09T14:00:18.319Z,24.53
2022-10-09T14:01:20.487Z,24.49
2022-10-09T14:02:22.637Z,24.21
2022-10-09T14:03:24.814Z,23.97
2022-10-09T14:04:28.581Z,24.57
2022-10-09T14:05:30.679Z,24.44
2022-10-09T14:06:36.905Z,24.60
2022-10-09T14:07:39.317Z,23.78
2022-10-09T14:08:41.794Z,23.94
2022-10-09T14:09:43.870Z,23.86
2022-10-09T14:10:45.963Z,24.02
2022-10-09T14:11:48.814Z,24.27
2022-10-09T14:12:51.435Z,24.45
2022-10-09T14:13:54.121Z,24.66
2022-10-09T14:14:56.294Z,24.78
2022-10-09T14:15:58.460Z,24.54
2022-10-09T14:17:00.571Z,24.60
2022-10-09T14:18:02.707Z,24.62
2022-10-09T14:19:06.262Z,24.61
2022-10-09T14:20:08.933Z,24.61
2022-10-09T14:21:15.323Z,24.83
2022-10-09T14:22:17.869Z,24.69
2022-10-09T14:23:19.958Z,24.37
2022-10-09T14:24:22.453Z,24.88
2022-10-09T14:25:24.583Z,25.17
2022-10-09T14:26:27.872Z,25.39
2022-10-09T14:27:30.043Z,24.89
2022-10-09T14:28:33.081Z,25.03